Austin, Arkansas
Current Conditions -  °F | °C
As of 5:58 AM on Monday 24 Nov 2014 (Local Time) from KLRF Reporting Station
Clear Clear  
Wind Chill: 40°   Ceiling: Unl
Heat Index: 46°   Visibility: 10mi
Dew Point: 36°   Wind: 13mph
Humidity: 69%   Direction: 260°W
Pressure: 29.77"   Gusts: NA
Location:  35°N, 91.98°W
Report Text: KLRF 241158Z AUTO 26011KT 10SM CLR 08/02 A2977 RMK AO2 SLP084 70054 T00750021 10152 20075 52052
Loading
Personal Weather Stations






























Interactive Weather Map New forecast layout! Learn more

10-Day Weather Forecast

Advertisements
Track Severe Weather on mobile